Clearmont, Missouri
Current Conditions -  °F | °C
As of 2:15 PM on Sunday 23 Nov 2014 (Local Time) from KICL Reporting Station
Overcast Overcast  
Wind Chill: 42°   Ceiling: 2600
Heat Index: 48°   Visibility: 10mi
Dew Point: 43°   Wind: 17mph
Humidity: 82%   Direction: 340°NNW
Pressure: 29.42"   Gusts: 25mph
Location:  40.51°N, 95.03°W
Report Text: KICL 232015Z AUTO 34015G22KT 10SM OVC026 09/06 A2942 RMK AO2
Loading
Personal Weather Stations






























Interactive Weather Map New forecast layout! Learn more

10-Day Weather Forecast

Advertisements
Track Severe Weather on mobile